Time;durP1;ratioP1;P1;durP2;ratioP2;P2;SDS_P1;SDS_P2;PMS_P1;PMS_P2;Temp;Humidity;BMP_temperature;BMP_pressure;BME280_temperature;BME280_humidity;BME280_pressure;Samples;Min_cycle;Max_cycle;Signal;HPM_P1;HPM_P2
2023/10/07 00:01:10;;;;;;;10.00;2.78;;;;;;;23.49;60.14;102175.91;5114403;27;20050;-69
2023/10/07 00:03:38;;;;;;;8.60;3.17;;;;;;;24.66;55.78;102175.09;5134019;27;20027;-69
2023/10/07 00:06:09;;;;;;;9.43;2.33;;;;;;;23.74;58.68;102181.06;5114615;27;20076;-69
2023/10/07 00:08:35;;;;;;;9.57;2.22;;;;;;;24.21;56.84;102186.06;5108210;28;20088;-69
2023/10/07 00:11:00;;;;;;;8.43;2.72;;;;;;;24.14;57.43;102183.72;5094749;28;20734;-69
2023/10/07 00:13:31;;;;;;;11.25;1.90;;;;;;;24.44;57.17;102184.13;5113522;28;20456;-69
2023/10/07 00:15:56;;;;;;;8.18;2.45;;;;;;;24.60;55.15;102180.72;5094088;28;20482;-69
2023/10/07 00:18:24;;;;;;;14.13;2.78;;;;;;;24.12;57.29;102173.13;5108639;27;20054;-70
2023/10/07 00:20:53;;;;;;;7.50;1.80;;;;;;;24.78;56.01;102179.84;5114748;27;20030;-69
2023/10/07 00:23:21;;;;;;;7.93;2.05;;;;;;;23.50;59.41;102167.84;5114278;27;20027;-70
2023/10/07 00:25:52;;;;;;;9.15;3.03;;;;;;;23.58;60.42;102169.31;5115461;27;20034;-70
2023/10/07 00:28:24;;;;;;;6.93;2.30;;;;;;;24.44;57.08;102162.75;5131633;27;20030;-69
2023/10/07 00:30:49;;;;;;;13.07;2.25;;;;;;;23.36;60.94;102159.56;5132467;27;20027;-69
2023/10/07 00:33:20;;;;;;;8.15;2.20;;;;;;;23.52;60.81;102155.31;5114746;27;20016;-69
2023/10/07 00:35:49;;;;;;;16.92;2.35;;;;;;;24.13;59.10;102145.47;5112956;27;20039;-69
2023/10/07 00:38:15;;;;;;;11.93;2.30;;;;;;;24.84;55.85;102142.13;5100690;28;20587;-69
2023/10/07 00:40:45;;;;;;;4.90;2.13;;;;;;;23.94;57.73;102147.28;5112959;28;20039;-69
2023/10/07 00:43:24;;;;;;;5.82;2.22;;;;;;;23.39;61.23;102154.09;5109349;27;20829;-69
2023/10/07 00:45:59;;;;;;;5.97;2.35;;;;;;;24.21;57.36;102154.00;5132583;27;20026;-70
2023/10/07 00:48:38;;;;;;;7.72;2.42;;;;;;;24.35;57.17;102149.81;5114120;27;20371;-69
2023/10/07 00:51:11;;;;;;;7.82;2.72;;;;;;;23.84;58.07;102155.66;5112734;27;20027;-69
2023/10/07 00:53:45;;;;;;;10.82;2.47;;;;;;;24.12;56.58;102158.91;5112331;27;20409;-69
2023/10/07 00:56:14;;;;;;;7.57;2.03;;;;;;;23.67;58.89;102168.91;5113789;27;20027;-69
2023/10/07 00:58:41;;;;;;;7.53;2.45;;;;;;;23.18;61.18;102182.56;5113308;27;20057;-69
2023/10/07 01:01:09;;;;;;;8.80;2.58;;;;;;;24.40;57.62;102169.19;5113918;27;20039;-69
2023/10/07 01:03:47;;;;;;;8.93;1.90;;;;;;;23.93;57.51;102170.41;5130282;27;20046;-69
2023/10/07 01:06:22;;;;;;;8.00;2.78;;;;;;;23.70;59.72;102169.63;5096766;28;20037;-69
2023/10/07 01:08:50;;;;;;;6.30;1.90;;;;;;;23.53;59.39;102162.38;5125079;27;20103;-69
2023/10/07 01:13:48;;;;;;;6.88;1.77;;;;;;;23.88;58.81;102178.66;5112646;28;20076;-69
2023/10/07 01:16:20;;;;;;;12.15;2.60;;;;;;;23.63;59.37;102172.63;5093515;28;20464;-69
2023/10/07 01:18:45;;;;;;;9.40;1.60;;;;;;;22.76;62.82;102170.03;5120444;27;20043;-68
2023/10/07 01:21:30;;;;;;;8.45;2.45;;;;;;;24.44;57.00;102160.06;5094255;28;20096;-69
2023/10/07 01:23:56;;;;;;;5.05;2.30;;;;;;;25.09;55.68;102167.63;5093227;28;20055;-69
2023/10/07 01:26:23;;;;;;;10.40;2.45;;;;;;;23.97;58.66;102168.50;5111131;27;20135;-69
2023/10/07 01:28:56;;;;;;;13.65;2.38;;;;;;;23.86;58.34;102161.81;5103041;27;20511;-69
2023/10/07 01:31:23;;;;;;;9.93;1.90;;;;;;;23.95;59.43;102162.38;5111280;27;20050;-69
2023/10/07 01:33:48;;;;;;;7.82;2.00;;;;;;;24.84;54.73;102158.16;5111606;27;20031;-69
2023/10/07 01:36:24;;;;;;;4.85;1.58;;;;;;;24.62;55.72;102158.34;5117074;27;20035;-69
2023/10/07 01:38:53;;;;;;;11.23;2.38;;;;;;;24.42;57.22;102151.25;5116823;27;20109;-68
2023/10/07 01:41:20;;;;;;;6.10;1.48;;;;;;;23.76;58.81;102151.63;5110383;27;20030;-68
2023/10/07 01:44:00;;;;;;;8.68;2.15;;;;;;;23.86;58.44;102169.81;5093707;28;20023;-68
2023/10/07 01:46:32;;;;;;;8.27;1.73;;;;;;;24.62;56.85;102144.09;5092696;28;20016;-68
2023/10/07 01:49:17;;;;;;;6.53;2.78;;;;;;;25.12;53.76;102151.41;5112629;27;20033;-68
2023/10/07 01:51:45;;;;;;;7.88;1.98;;;;;;;24.41;57.01;102159.34;5108738;27;20119;-68
2023/10/07 01:54:11;;;;;;;5.22;1.50;;;;;;;24.67;55.37;102158.97;5111466;27;20046;-68
2023/10/07 01:56:38;;;;;;;6.20;2.53;;;;;;;23.79;58.94;102157.66;5112830;27;20031;-68
2023/10/07 02:01:43;;;;;;;10.20;2.55;;;;;;;24.39;56.40;102151.41;5129673;27;20047;-68
2023/10/07 02:04:17;;;;;;;5.78;1.80;;;;;;;24.74;56.61;102156.88;5111120;27;20087;-68
2023/10/07 02:06:52;;;;;;;4.47;1.85;;;;;;;24.41;58.05;102149.50;5099592;28;20032;-68
2023/10/07 02:09:23;;;;;;;8.70;1.48;;;;;;;25.03;55.58;102141.19;5111394;28;20024;-68
2023/10/07 02:11:53;;;;;;;6.25;1.40;;;;;;;24.41;56.93;102146.84;5117730;27;20023;-68
2023/10/07 02:14:23;;;;;;;11.65;3.20;;;;;;;23.93;58.83;102153.53;5130067;27;20038;-68
2023/10/07 02:16:49;;;;;;;5.70;2.08;;;;;;;23.31;61.10;102135.75;5107026;27;20031;-68
2023/10/07 02:19:22;;;;;;;4.88;1.40;;;;;;;24.53;57.48;102140.06;5112310;27;20100;-68
2023/10/07 02:21:51;;;;;;;5.70;2.13;;;;;;;24.42;57.09;102139.72;5130479;27;20085;-69
2023/10/07 02:24:21;;;;;;;9.20;2.08;;;;;;;24.12;58.36;102137.53;5108209;28;20023;-68
2023/10/07 02:26:53;;;;;;;6.07;1.90;;;;;;;23.93;59.05;102150.88;5113058;27;20032;-68
2023/10/07 02:29:19;;;;;;;6.38;2.10;;;;;;;25.16;54.57;102142.28;5099796;28;20022;-68
2023/10/07 02:31:45;;;;;;;8.02;1.83;;;;;;;24.71;55.57;102146.34;5114197;27;20015;-69
2023/10/07 02:34:27;;;;;;;7.25;2.13;;;;;;;24.35;58.36;102149.81;5111009;27;20462;-68
2023/10/07 02:37:09;;;;;;;;;;;;;;;24.56;57.81;102143.44;5101910;28;20487;-68
2023/10/07 02:39:45;;;;;;;8.38;2.47;;;;;;;24.73;57.29;102133.78;5110405;28;19917;-68
2023/10/07 02:42:12;;;;;;;4.45;1.85;;;;;;;23.68;59.97;102138.63;5109479;27;20031;-68
2023/10/07 02:44:38;;;;;;;8.80;1.70;;;;;;;23.79;60.69;102141.66;5096244;27;20486;-68
2023/10/07 02:47:11;;;;;;;7.32;1.48;;;;;;;23.53;60.88;102130.38;5110358;28;20057;-69
2023/10/07 02:49:39;;;;;;;13.25;2.20;;;;;;;23.62;61.17;102122.88;5108285;28;20023;-68
2023/10/07 02:52:04;;;;;;;5.57;1.90;;;;;;;24.88;56.45;102126.75;5091522;28;20103;-68
2023/10/07 02:54:33;;;;;;;6.22;1.70;;;;;;;24.28;58.02;102127.88;5096557;27;20118;-68
2023/10/07 02:57:08;;;;;;;6.50;1.42;;;;;;;24.44;57.70;102117.31;5125278;27;20033;-69
2023/10/07 02:59:50;;;;;;;14.10;2.03;;;;;;;25.28;54.75;102107.81;5109210;28;20099;-68
2023/10/07 03:05:05;;;;;;;11.23;3.10;;;;;;;24.07;58.89;102124.41;5130084;27;20794;-68
2023/10/07 03:07:34;;;;;;;7.10;2.40;;;;;;;24.24;59.54;102122.75;5111690;28;20113;-68
2023/10/07 03:10:19;;;;;;;12.50;2.03;;;;;;;24.04;59.99;102125.44;5110231;27;20114;-68
2023/10/07 03:12:56;;;;;;;7.28;1.85;;;;;;;24.66;59.00;102132.31;5100096;28;20016;-69
2023/10/07 03:17:59;;;;;;;6.63;2.03;;;;;;;24.38;57.67;102129.16;5108800;28;20035;-68
2023/10/07 03:20:28;;;;;;;7.07;1.92;;;;;;;25.16;56.74;102131.59;5109910;28;20046;-68
2023/10/07 03:23:25;;;;;;;5.45;1.60;;;;;;;24.67;57.49;102134.91;5091277;28;20031;-71
2023/10/07 03:28:23;;;;;;;9.38;2.67;;;;;;;24.28;58.39;102127.88;5115475;28;20031;-71
2023/10/07 03:30:52;;;;;;;9.75;1.90;;;;;;;25.13;56.21;102126.41;5111478;28;20034;-71
2023/10/07 03:34:08;;;;;;;5.35;1.77;;;;;;;24.07;58.97;102127.09;5130501;28;20475;-70
2023/10/07 03:36:31;;;;;;;8.82;2.22;;;;;;;24.71;57.58;102125.81;5112214;28;20135;-70
2023/10/07 03:41:59;;;;;;;12.40;2.00;;;;;;;24.18;60.58;102127.44;5071167;28;20032;-71
2023/10/07 03:44:25;;;;;;;5.80;1.75;;;;;;;24.49;57.92;102125.09;5091590;28;20596;-70
2023/10/07 03:46:54;;;;;;;6.10;1.73;;;;;;;24.76;58.03;102112.22;5090794;28;20032;-70
2023/10/07 03:49:22;;;;;;;4.00;1.50;;;;;;;25.32;55.77;102125.44;5095905;28;20102;-70
2023/10/07 03:51:48;;;;;;;11.88;1.70;;;;;;;24.54;58.36;102126.59;5128696;28;20023;-70
2023/10/07 03:54:24;;;;;;;6.22;1.80;;;;;;;24.04;59.70;102125.44;5110314;28;20089;-70
2023/10/07 03:56:51;;;;;;;5.75;1.90;;;;;;;23.82;60.52;102125.53;5109768;28;20027;-70
2023/10/07 03:59:17;;;;;;;8.52;1.67;;;;;;;23.75;61.01;102129.38;5112468;28;20023;-70
2023/10/07 04:01:45;;;;;;;9.75;2.15;;;;;;;24.61;58.25;102129.00;5100440;28;20055;-70
2023/10/07 04:04:12;;;;;;;6.18;2.80;;;;;;;25.03;56.71;102123.34;5111407;28;20291;-70
2023/10/07 04:06:38;;;;;;;7.32;1.52;;;;;;;25.14;56.50;102122.78;5117051;28;20031;-71
2023/10/07 04:09:11;;;;;;;6.57;2.15;;;;;;;24.29;59.53;102126.94;5109285;28;20061;-71
2023/10/07 04:11:39;;;;;;;3.92;1.52;;;;;;;24.72;58.28;102114.19;5093270;28;20046;-70
2023/10/07 04:14:19;;;;;;;4.03;1.58;;;;;;;25.36;55.97;102116.34;5115966;28;20038;-70
2023/10/07 04:16:47;;;;;;;6.40;2.45;;;;;;;24.67;58.62;102129.56;5106009;28;20117;-71
2023/10/07 04:21:41;;;;;;;5.35;1.60;;;;;;;24.98;56.76;102111.16;5110422;27;20068;-70
2023/10/07 04:24:15;;;;;;;8.65;2.00;;;;;;;25.42;55.36;102104.44;5115407;27;20024;-71
2023/10/07 04:27:02;;;;;;;8.95;2.00;;;;;;;24.16;59.36;102109.75;5094953;28;20083;-70
2023/10/07 04:29:28;;;;;;;7.22;2.08;;;;;;;24.32;58.58;102110.75;5105860;27;20027;-70
2023/10/07 04:31:54;;;;;;;11.20;1.70;;;;;;;23.95;59.31;102107.16;5112673;27;20075;-70
2023/10/07 04:34:24;;;;;;;7.75;1.80;;;;;;;24.31;57.92;102101.00;5101059;28;20031;-70
2023/10/07 04:42:36;;;;;;;5.45;1.67;;;;;;;24.62;57.51;102096.88;5115895;27;20046;-70
2023/10/07 04:45:17;;;;;;;9.45;1.77;;;;;;;23.83;61.76;102108.53;5107298;27;20095;-70
2023/10/07 04:47:46;;;;;;;7.53;2.22;;;;;;;25.11;55.96;102101.53;5133447;27;20110;-71
2023/10/07 04:52:50;;;;;;;8.95;2.35;;;;;;;24.69;56.71;102103.66;5133283;27;20110;-70
2023/10/07 04:55:19;;;;;;;5.25;1.40;;;;;;;25.42;54.28;102102.66;5093770;28;20031;-69
2023/10/07 05:02:59;;;;;;;5.90;2.50;;;;;;;24.88;56.00;102090.22;5111148;28;20032;-69
2023/10/07 05:05:29;;;;;;;8.70;1.45;;;;;;;24.63;57.58;102095.06;5109535;27;20038;-69
2023/10/07 05:07:58;;;;;;;4.68;1.80;;;;;;;24.10;58.66;102086.88;5131169;27;20023;-70
2023/10/07 05:10:29;;;;;;;12.02;2.10;;;;;;;24.39;59.19;102098.81;5132035;27;20106;-70
2023/10/07 05:12:59;;;;;;;7.75;1.60;;;;;;;24.05;59.27;102104.91;5112307;27;20038;-70
2023/10/07 05:15:27;;;;;;;6.47;1.77;;;;;;;24.89;55.99;102099.97;5113380;27;20600;-69
2023/10/07 05:17:52;;;;;;;7.47;1.75;;;;;;;24.92;56.01;102104.28;5128646;27;20019;-70
2023/10/07 05:20:27;;;;;;;4.30;2.40;;;;;;;24.43;58.21;102110.25;5098030;27;20019;-70
2023/10/07 05:22:57;;;;;;;8.55;1.90;;;;;;;24.68;57.02;102120.63;5131314;27;20031;-70
2023/10/07 05:25:22;;;;;;;7.45;1.75;;;;;;;24.49;57.15;102117.94;5105703;28;20120;-70
2023/10/07 05:27:50;;;;;;;6.45;1.67;;;;;;;24.77;56.92;102130.00;5111710;27;20491;-70
2023/10/07 05:30:18;;;;;;;12.77;1.92;;;;;;;24.05;59.67;102126.28;5092724;28;20027;-70
2023/10/07 05:32:45;;;;;;;6.47;1.67;;;;;;;25.18;55.84;102124.38;5093098;28;20016;-71
2023/10/07 05:35:16;;;;;;;11.52;2.05;;;;;;;25.39;55.32;102125.09;5094670;27;20298;-71
2023/10/07 05:37:44;;;;;;;9.30;2.75;;;;;;;24.32;58.42;102123.25;5111614;27;20394;-71
2023/10/07 05:40:13;;;;;;;7.55;2.03;;;;;;;24.83;56.07;102123.47;5110478;27;20024;-69
2023/10/07 05:42:39;;;;;;;7.88;1.80;;;;;;;24.79;56.61;102105.88;5093145;28;20023;-69
2023/10/07 05:45:07;;;;;;;5.95;2.00;;;;;;;24.88;56.73;102111.63;5110655;28;20035;-69
2023/10/07 05:47:32;;;;;;;5.75;1.98;;;;;;;24.89;57.49;102124.03;5097599;27;20027;-69
2023/10/07 05:50:00;;;;;;;6.50;2.13;;;;;;;24.60;58.19;102138.81;5121484;27;20076;-69
2023/10/07 05:52:26;;;;;;;6.45;1.92;;;;;;;25.82;54.24;102129.94;5110348;27;20027;-70
2023/10/07 05:54:56;;;;;;;7.30;1.90;;;;;;;25.33;55.56;102127.22;5092407;28;20026;-69
2023/10/07 05:57:22;;;;;;;6.30;2.13;;;;;;;25.35;55.26;102119.97;5092974;28;20098;-70
2023/10/07 05:59:47;;;;;;;11.50;2.25;;;;;;;24.62;58.20;102125.41;5120350;27;20061;-70
2023/10/07 06:02:13;;;;;;;12.73;2.40;;;;;;;24.96;57.07;102123.72;5110799;28;20098;-70
2023/10/07 06:04:39;;;;;;;3.65;1.83;;;;;;;24.04;60.07;102121.88;5093574;28;20043;-71
2023/10/07 06:07:07;;;;;;;5.80;2.53;;;;;;;25.51;55.49;102109.31;5109758;27;20100;-70
2023/10/07 06:09:32;;;;;;;9.05;2.25;;;;;;;24.76;57.06;102112.22;5128644;27;20031;-71
2023/10/07 06:11:59;;;;;;;5.35;2.00;;;;;;;24.03;60.98;102123.69;5115940;27;20025;-71
2023/10/07 06:14:25;;;;;;;7.50;2.80;;;;;;;24.66;59.78;102118.97;5099060;28;20115;-70
2023/10/07 06:16:52;;;;;;;4.43;1.92;;;;;;;24.54;58.85;102123.09;5115050;27;20502;-71
2023/10/07 06:19:18;;;;;;;9.27;2.35;;;;;;;25.18;56.07;102124.38;5092567;28;20092;-70
2023/10/07 06:21:56;;;;;;;5.05;1.85;;;;;;;24.26;60.40;102129.72;5101815;27;20064;-70
2023/10/07 06:24:22;;;;;;;9.13;2.15;;;;;;;23.63;63.50;102124.59;5117139;27;20038;-70
2023/10/07 06:26:53;;;;;;;9.98;2.28;;;;;;;24.05;60.98;102128.94;5092033;28;20130;-70
2023/10/07 06:29:19;;;;;;;7.50;2.05;;;;;;;23.42;65.07;102121.94;5108067;27;20023;-70
2023/10/07 06:31:55;;;;;;;13.57;2.70;;;;;;;23.62;63.04;102120.22;5119422;27;20394;-70
2023/10/07 06:34:25;;;;;;;7.80;1.77;;;;;;;24.30;61.71;102109.09;5112983;27;20290;-70
2023/10/07 06:36:54;;;;;;;9.32;2.92;;;;;;;24.07;61.10;102105.72;5110108;27;20573;-70
2023/10/07 06:39:27;;;;;;;6.60;1.88;;;;;;;24.28;60.52;102111.00;5094638;27;20054;-70
2023/10/07 06:41:55;;;;;;;16.58;2.83;;;;;;;24.48;60.33;102110.00;5118903;27;20387;-70
2023/10/07 06:44:23;;;;;;;5.72;2.38;;;;;;;23.76;62.99;102115.09;5121213;27;20243;-71
2023/10/07 06:46:54;;;;;;;10.60;2.35;;;;;;;23.65;65.56;102112.06;5095014;28;20513;-70
2023/10/07 06:49:20;;;;;;;9.67;2.30;;;;;;;23.28;65.43;102108.38;5102096;27;20026;-70
2023/10/07 06:51:53;;;;;;;12.82;3.17;;;;;;;24.46;60.94;102128.78;5109964;27;20020;-70
2023/10/07 06:54:23;;;;;;;12.40;2.70;;;;;;;24.70;60.84;102134.78;5127465;27;20031;-70
2023/10/07 06:56:54;;;;;;;20.30;2.60;;;;;;;23.60;64.46;102135.41;5128677;27;20062;-70
2023/10/07 06:59:27;;;;;;;11.15;2.58;;;;;;;24.42;60.33;102145.91;5111547;27;20035;-70
2023/10/07 07:01:53;;;;;;;;;;;;;;;24.21;61.80;102140.66;5110554;27;20105;-70
2023/10/07 07:04:22;;;;;;;15.13;3.00;;;;;;;24.13;61.36;102136.63;5124324;27;19920;-70
2023/10/07 07:07:09;;;;;;;8.38;2.50;;;;;;;24.29;62.23;102128.72;5129083;27;20126;-70
2023/10/07 07:12:18;;;;;;;6.60;1.98;;;;;;;24.20;61.35;102151.41;5114673;27;20035;-70
2023/10/07 07:17:47;;;;;;;9.82;2.63;;;;;;;23.49;65.64;102160.78;5026412;28;20034;-70
2023/10/07 07:22:45;;;;;;;10.18;2.67;;;;;;;24.48;60.61;102156.31;5123661;28;20062;-70
2023/10/07 07:27:53;;;;;;;8.55;2.00;;;;;;;24.96;59.29;102164.69;5130412;28;20069;-68
2023/10/07 07:30:19;;;;;;;14.95;2.85;;;;;;;24.60;60.20;102180.72;5109286;28;20054;-69
2023/10/07 07:32:58;;;;;;;11.52;2.13;;;;;;;24.55;59.92;102184.47;5100652;28;20506;-69
2023/10/07 07:35:37;;;;;;;8.80;2.35;;;;;;;24.78;59.08;102179.84;5112377;28;20149;-69
2023/10/07 07:38:05;;;;;;;7.47;2.22;;;;;;;24.33;59.59;102189.09;5095214;28;20036;-69
2023/10/07 07:40:40;;;;;;;8.95;1.90;;;;;;;24.02;61.18;102193.19;5129816;28;20027;-69
2023/10/07 07:43:07;;;;;;;10.07;1.98;;;;;;;24.78;59.51;102185.19;5122702;28;20038;-69
2023/10/07 07:45:35;;;;;;;11.15;2.53;;;;;;;24.21;61.31;102187.88;5109318;28;20110;-70
2023/10/07 07:48:04;;;;;;;5.47;2.38;;;;;;;25.81;56.10;102181.78;5130110;28;20114;-69
2023/10/07 07:50:35;;;;;;;14.50;2.53;;;;;;;23.87;60.97;102186.69;5126845;28;20034;-69
2023/10/07 07:53:09;;;;;;;10.90;2.50;;;;;;;24.65;59.02;102184.06;5108447;28;20350;-72
2023/10/07 07:55:43;;;;;;;5.25;1.73;;;;;;;24.95;57.42;102175.47;5115680;27;20460;-71
2023/10/07 07:58:09;;;;;;;8.88;2.20;;;;;;;25.65;54.57;102175.50;5120610;27;20088;-71
2023/10/07 08:00:40;;;;;;;13.40;2.05;;;;;;;25.78;54.77;102181.94;5105672;28;20481;-71
2023/10/07 08:03:07;;;;;;;10.63;2.20;;;;;;;25.04;56.87;102177.69;5101514;27;20406;-71
2023/10/07 08:05:35;;;;;;;6.38;1.70;;;;;;;24.90;57.91;102176.56;5118335;27;20023;-71
2023/10/07 08:08:09;;;;;;;9.32;2.60;;;;;;;25.94;54.75;102175.75;5110881;27;20532;-71
2023/10/07 08:10:35;;;;;;;6.03;1.88;;;;;;;25.71;55.03;102164.47;5133895;27;20050;-71
2023/10/07 08:13:01;;;;;;;7.68;2.55;;;;;;;25.30;56.43;102170.16;5124588;27;20058;-71
2023/10/07 08:15:38;;;;;;;9.90;2.10;;;;;;;25.53;55.86;102172.53;5103984;27;20106;-70
2023/10/07 08:18:06;;;;;;;9.77;2.60;;;;;;;24.96;56.09;102187.91;5115244;27;20027;-71
2023/10/07 08:20:44;;;;;;;12.20;1.98;;;;;;;26.52;52.82;102177.94;5104736;27;20027;-70
2023/10/07 08:23:23;;;;;;;5.97;2.28;;;;;;;25.27;55.40;102175.66;5114904;27;20391;-71
2023/10/07 08:25:54;;;;;;;6.85;2.00;;;;;;;26.72;51.27;102179.53;5114729;27;20058;-71
2023/10/07 08:28:23;;;;;;;8.73;2.17;;;;;;;25.67;53.77;102173.63;5097391;28;20437;-71
2023/10/07 08:30:49;;;;;;;7.28;1.85;;;;;;;25.85;53.79;102177.13;5095419;28;20122;-71
2023/10/07 08:33:17;;;;;;;7.88;1.90;;;;;;;26.28;52.53;102180.16;5111623;28;20122;-71
2023/10/07 08:35:47;;;;;;;6.68;1.58;;;;;;;25.90;52.89;102170.56;5099116;27;20383;-71
2023/10/07 08:38:20;;;;;;;8.20;2.00;;;;;;;25.54;53.93;102174.25;5096031;27;20030;-71
2023/10/07 08:41:05;;;;;;;7.10;2.55;;;;;;;25.83;52.90;102169.19;5097420;27;20076;-71
2023/10/07 08:43:43;;;;;;;11.40;1.98;;;;;;;25.73;52.95;102167.94;5124560;27;20479;-71
2023/10/07 08:46:11;;;;;;;8.68;1.60;;;;;;;25.23;53.77;102175.81;5103480;27;20030;-71
2023/10/07 08:48:39;;;;;;;10.20;2.22;;;;;;;24.92;53.92;102172.94;5123574;27;20062;-72
2023/10/07 08:51:14;;;;;;;9.65;1.92;;;;;;;25.43;54.40;102168.63;5121263;27;20023;-71
2023/10/07 08:53:41;;;;;;;13.05;2.35;;;;;;;24.43;55.16;102178.81;5094447;27;20024;-71
2023/10/07 08:56:09;;;;;;;7.18;2.03;;;;;;;25.68;52.42;102170.00;5112209;27;20031;-71
2023/10/07 08:58:39;;;;;;;15.15;2.88;;;;;;;25.18;53.48;102183.22;5116167;27;20077;-71
2023/10/07 09:01:07;;;;;;;11.23;2.35;;;;;;;25.36;52.24;102185.91;5093438;28;20035;-71
2023/10/07 09:03:39;;;;;;;7.65;1.92;;;;;;;25.49;52.27;102181.66;5117222;27;20027;-72
2023/10/07 09:06:06;;;;;;;11.38;2.25;;;;;;;25.29;52.71;102187.16;5115978;27;20047;-71
2023/10/07 09:08:33;;;;;;;17.17;3.40;;;;;;;26.14;50.11;102178.25;5111569;27;20031;-71
2023/10/07 09:10:59;;;;;;;7.53;2.42;;;;;;;26.44;50.00;102182.00;5131114;27;20031;-71
2023/10/07 09:13:29;;;;;;;14.63;2.15;;;;;;;26.69;48.63;102173.41;5120886;27;20475;-71
2023/10/07 09:15:59;;;;;;;8.55;1.67;;;;;;;25.67;51.92;102170.94;5096026;27;20035;-71
2023/10/07 09:18:28;;;;;;;14.52;2.78;;;;;;;24.88;52.52;102175.78;5115141;27;20118;-71
2023/10/07 09:20:56;;;;;;;9.60;2.92;;;;;;;26.38;49.85;102170.66;5111776;28;20476;-71
2023/10/07 09:23:24;;;;;;;7.20;2.08;;;;;;;26.50;48.70;102174.50;5110748;27;20360;-71
2023/10/07 09:25:53;;;;;;;11.18;2.60;;;;;;;26.48;48.26;102168.34;5122127;27;20076;-71
2023/10/07 09:28:29;;;;;;;9.70;2.05;;;;;;;25.43;50.34;102171.28;5117180;27;20501;-71
2023/10/07 09:30:58;;;;;;;6.05;2.25;;;;;;;25.29;50.12;102184.47;5105046;28;20072;-71
2023/10/07 09:33:35;;;;;;;7.40;1.90;;;;;;;25.16;50.90;102179.75;5094671;27;20489;-70
2023/10/07 09:38:48;;;;;;;10.05;2.05;;;;;;;25.56;50.38;102193.78;5125655;27;20042;-71
2023/10/07 09:43:51;;;;;;;6.13;1.60;;;;;;;25.06;51.58;102221.28;5112515;27;20067;-71
2023/10/07 09:46:24;;;;;;;11.63;2.05;;;;;;;25.31;50.99;102215.56;5105843;28;20023;-71
2023/10/07 09:49:00;;;;;;;8.57;2.45;;;;;;;25.04;51.46;102223.16;5104910;27;20100;-71
2023/10/07 09:51:34;;;;;;;7.05;1.70;;;;;;;26.58;48.95;102212.44;5112492;27;20031;-71
2023/10/07 09:54:22;;;;;;;9.60;2.38;;;;;;;25.10;51.42;102230.88;5119197;27;20408;-71
2023/10/07 09:57:06;;;;;;;5.38;1.52;;;;;;;25.11;50.71;102219.22;5106798;27;20498;-72
2023/10/07 09:59:56;;;;;;;5.20;1.77;;;;;;;26.57;48.33;102218.75;5123817;27;21520;-71
2023/10/07 10:02:25;;;;;;;10.85;1.63;;;;;;;25.85;50.21;102215.47;5118602;27;20059;-71
2023/10/07 10:05:35;;;;;;;5.90;2.10;;;;;;;26.27;48.86;102209.72;5111905;27;20494;-71
2023/10/07 10:08:35;;;;;;;7.03;2.05;;;;;;;26.84;47.63;102207.44;5113568;27;20065;-71
2023/10/07 10:11:09;;;;;;;13.90;2.22;;;;;;;26.97;47.79;102204.03;5077249;27;20182;-71
2023/10/07 10:16:14;;;;;;;10.75;2.85;;;;;;;26.04;48.08;102193.09;5121860;27;20126;-71
2023/10/07 10:18:51;;;;;;;9.15;2.03;;;;;;;25.36;49.35;102197.50;5111427;27;20024;-71
2023/10/07 10:21:22;;;;;;;10.05;2.00;;;;;;;27.11;45.75;102193.38;5099134;27;20062;-71
2023/10/07 10:23:51;;;;;;;9.10;1.67;;;;;;;26.93;46.18;102195.31;5116325;27;20160;-72
2023/10/07 10:26:27;;;;;;;5.40;1.50;;;;;;;27.71;45.35;102194.28;5104375;27;20027;-72
2023/10/07 10:29:15;;;;;;;8.07;2.15;;;;;;;26.88;46.93;102195.56;5106091;27;20566;-71
2023/10/07 10:31:48;;;;;;;5.63;1.83;;;;;;;26.84;45.43;102204.75;5116379;27;20275;-72
2023/10/07 10:34:14;;;;;;;5.28;2.08;;;;;;;25.24;49.58;102198.94;5108153;27;20276;-72
2023/10/07 10:36:43;;;;;;;7.40;1.88;;;;;;;27.34;45.62;102201.88;5129847;27;20045;-71
2023/10/07 10:39:36;;;;;;;4.97;1.65;;;;;;;26.34;46.76;102213.81;5122373;27;20030;-71
2023/10/07 10:42:09;;;;;;;4.78;1.67;;;;;;;27.48;45.09;102204.63;5105885;28;20452;-71
2023/10/07 10:44:39;;;;;;;6.43;1.70;;;;;;;28.52;43.05;102212.53;5097459;27;20038;-71
2023/10/07 10:47:06;;;;;;;6.90;2.08;;;;;;;27.25;45.68;102220.25;5122862;27;20039;-71
2023/10/07 10:49:32;;;;;;;5.97;1.55;;;;;;;26.81;46.88;102226.38;5092151;28;20508;-72
2023/10/07 10:51:59;;;;;;;9.75;2.10;;;;;;;26.49;47.39;102231.72;5128262;27;20023;-72
2023/10/07 10:54:25;;;;;;;6.78;1.90;;;;;;;27.52;46.22;102216.91;5094733;28;20037;-72
2023/10/07 10:56:58;;;;;;;6.28;2.03;;;;;;;25.79;49.14;102226.53;5115509;27;20059;-71
2023/10/07 10:59:43;;;;;;;10.77;2.00;;;;;;;26.79;47.29;102222.06;5097150;27;20061;-71
2023/10/07 11:02:22;;;;;;;4.95;2.17;;;;;;;25.89;49.08;102222.41;5106322;27;20703;-72
2023/10/07 11:04:56;;;;;;;5.90;1.73;;;;;;;26.37;48.33;102232.41;5102653;28;20023;-71
2023/10/07 11:07:22;;;;;;;6.25;1.77;;;;;;;26.46;48.55;102221.19;5110177;28;20117;-71
2023/10/07 11:09:51;;;;;;;12.95;2.72;;;;;;;26.39;48.72;102228.69;5103581;27;20451;-71
2023/10/07 11:12:17;;;;;;;9.65;1.98;;;;;;;26.68;47.88;102214.59;5115985;27;20449;-71
2023/10/07 11:14:44;;;;;;;4.13;1.45;;;;;;;27.79;45.52;102218.84;5108633;28;20038;-72
2023/10/07 11:17:10;;;;;;;4.00;1.80;;;;;;;26.56;47.77;102227.75;5093808;28;20050;-71
2023/10/07 11:19:51;;;;;;;12.60;2.63;;;;;;;26.87;47.56;102230.53;5110797;28;20471;-71
2023/10/07 11:22:21;;;;;;;11.32;2.05;;;;;;;26.27;49.20;102226.69;5111301;28;20391;-71
2023/10/07 11:24:50;;;;;;;5.85;1.77;;;;;;;27.54;46.42;102217.66;5126116;28;20392;-71
2023/10/07 11:27:23;;;;;;;6.57;2.05;;;;;;;27.98;46.05;102215.03;5091460;28;20429;-71
2023/10/07 11:30:03;;;;;;;7.88;1.48;;;;;;;28.15;45.31;102228.34;5105230;27;20042;-71
2023/10/07 11:32:33;;;;;;;8.95;2.30;;;;;;;27.98;44.99;102233.84;5104814;28;20019;-72
2023/10/07 11:34:59;;;;;;;8.88;1.75;;;;;;;28.22;45.09;102224.28;5116772;27;20027;-72
2023/10/07 11:37:26;;;;;;;8.57;2.92;;;;;;;27.24;46.73;102234.63;5122192;27;20027;-71
2023/10/07 11:39:53;;;;;;;6.28;1.85;;;;;;;26.59;48.11;102230.25;5099865;27;22406;-71
2023/10/07 11:42:21;;;;;;;5.40;1.83;;;;;;;26.41;48.62;102233.97;5131762;27;20478;-71
2023/10/07 11:44:54;;;;;;;13.18;2.35;;;;;;;26.73;47.46;102221.44;5129568;27;20027;-71
2023/10/07 11:47:20;;;;;;;8.57;1.90;;;;;;;26.95;47.29;102232.78;5122192;27;20022;-71
2023/10/07 11:49:46;;;;;;;4.53;1.90;;;;;;;26.20;48.07;102233.31;5122954;27;20019;-72
2023/10/07 11:52:19;;;;;;;8.10;2.28;;;;;;;25.76;49.10;102237.41;5103285;27;20193;-71
2023/10/07 11:54:45;;;;;;;6.22;2.00;;;;;;;26.52;47.81;102246.78;5125913;27;20027;-71
2023/10/07 11:57:10;;;;;;;7.78;2.25;;;;;;;25.87;49.20;102234.13;5109349;27;20208;-68
2023/10/07 11:59:41;;;;;;;15.60;1.92;;;;;;;26.04;48.09;102241.31;5114143;27;20398;-67
2023/10/07 12:02:10;;;;;;;7.28;1.77;;;;;;;25.85;49.16;102252.97;5117685;27;20059;-67
2023/10/07 12:04:39;;;;;;;8.88;1.65;;;;;;;26.26;48.45;102253.56;5101880;27;20019;-68
2023/10/07 12:07:08;;;;;;;8.20;1.85;;;;;;;26.24;48.30;102254.50;5120942;27;20034;-67
2023/10/07 12:09:34;;;;;;;8.85;2.03;;;;;;;25.90;49.36;102250.06;5094021;27;20030;-67
2023/10/07 12:12:02;;;;;;;4.75;2.10;;;;;;;25.87;49.71;102245.72;5118490;27;20023;-67
2023/10/07 12:14:28;;;;;;;6.43;2.17;;;;;;;26.05;48.80;102235.03;5133886;27;20068;-67
2023/10/07 12:16:55;;;;;;;5.93;2.00;;;;;;;26.45;48.38;102240.88;5106782;27;20039;-67
2023/10/07 12:19:20;;;;;;;4.53;2.13;;;;;;;26.27;48.50;102231.16;5114964;27;20020;-67
2023/10/07 12:21:47;;;;;;;12.10;1.92;;;;;;;27.13;46.49;102245.13;5096263;28;20383;-67
2023/10/07 12:24:14;;;;;;;7.70;2.15;;;;;;;25.56;50.20;102236.59;5102084;28;20110;-67
2023/10/07 12:26:39;;;;;;;5.30;2.03;;;;;;;26.51;48.15;102229.81;5097718;28;20102;-67
2023/10/07 12:29:06;;;;;;;5.50;2.45;;;;;;;26.40;48.76;102218.81;5101877;27;20034;-66
2023/10/07 12:31:32;;;;;;;3.55;1.90;;;;;;;26.09;48.74;102215.16;5112459;27;20023;-67